createdAt,value
2018-07-28T00:00:38.710Z,50.34
2018-07-28T00:01:44.232Z,50.62
2018-07-28T00:02:49.748Z,50.72
2018-07-28T00:03:55.272Z,50.50
2018-07-28T00:05:00.796Z,50.70
2018-07-28T00:06:06.348Z,50.62
2018-07-28T00:07:11.838Z,50.89
2018-07-28T00:08:17.358Z,51.28
2018-07-28T00:09:22.869Z,51.11
2018-07-28T00:10:28.400Z,51.09
2018-07-28T00:11:33.916Z,51.57
2018-07-28T00:12:39.439Z,51.76
2018-07-28T00:13:44.952Z,51.96
2018-07-28T00:14:50.480Z,52.06
2018-07-28T00:15:56.027Z,51.76
2018-07-28T00:17:01.525Z,52.06
2018-07-28T00:18:07.039Z,52.06
2018-07-28T00:19:12.555Z,52.06
2018-07-28T00:20:18.082Z,52.34
2018-07-28T00:21:23.600Z,51.86
2018-07-28T00:22:30.019Z,52.44
2018-07-28T00:23:34.644Z,52.25
2018-07-28T00:24:40.162Z,53.31
2018-07-28T00:25:45.684Z,52.83
2018-07-28T00:26:51.202Z,52.93
2018-07-28T00:27:56.719Z,52.83
2018-07-28T00:29:02.244Z,52.83
2018-07-28T00:30:07.762Z,52.25
2018-07-28T00:31:13.288Z,52.34
2018-07-28T00:32:18.809Z,52.25
2018-07-28T00:33:24.335Z,52.15
2018-07-28T00:34:29.844Z,52.83
2018-07-28T00:35:35.364Z,53.02
2018-07-28T00:36:40.890Z,52.83
2018-07-28T00:37:46.406Z,53.22
2018-07-28T00:38:51.929Z,54.19
2018-07-28T00:39:57.450Z,54.28
2018-07-28T00:41:02.969Z,53.70
2018-07-28T00:42:08.492Z,53.80
2018-07-28T00:43:14.011Z,54.19
2018-07-28T00:44:19.531Z,54.58
2018-07-28T00:45:25.051Z,55.16
2018-07-28T00:46:30.568Z,54.48
2018-07-28T00:47:36.097Z,54.77
2018-07-28T00:48:41.610Z,55.16
2018-07-28T00:49:47.131Z,55.26
2018-07-28T00:50:52.651Z,54.19
2018-07-28T00:51:58.170Z,54.38
2018-07-28T00:53:03.692Z,54.28
2018-07-28T00:54:09.215Z,54.28
2018-07-28T00:55:14.737Z,54.38
2018-07-28T00:56:20.272Z,55.06
2018-07-28T00:57:25.776Z,54.38
2018-07-28T00:58:31.293Z,55.44
2018-07-28T00:59:36.813Z,54.38
2018-07-28T01:00:42.337Z,54.58
2018-07-28T01:01:47.856Z,54.58
2018-07-28T01:02:53.380Z,54.09
2018-07-28T01:03:58.917Z,55.57
2018-07-28T01:05:04.417Z,55.16
2018-07-28T01:06:09.944Z,54.96
2018-07-28T01:07:15.459Z,54.50
2018-07-28T01:08:20.980Z,54.38
2018-07-28T01:09:26.500Z,54.77
2018-07-28T01:10:32.024Z,54.41
2018-07-28T01:11:37.543Z,54.31
2018-07-28T01:12:43.070Z,53.99
2018-07-28T01:13:48.601Z,53.61
2018-07-28T01:14:54.099Z,53.92
2018-07-28T01:15:59.625Z,54.21
2018-07-28T01:17:05.146Z,54.21
2018-07-28T01:18:10.666Z,54.02
2018-07-28T01:19:16.183Z,53.83
2018-07-28T01:20:21.706Z,53.92
2018-07-28T01:21:27.225Z,54.11
2018-07-28T01:22:32.749Z,53.73
2018-07-28T01:23:38.266Z,54.70
2018-07-28T01:24:43.788Z,53.34
2018-07-28T01:25:49.316Z,54.02
2018-07-28T01:26:54.830Z,53.24
2018-07-28T01:28:00.351Z,53.83
2018-07-28T01:29:05.871Z,53.83
2018-07-28T01:30:11.395Z,53.92
2018-07-28T01:31:16.912Z,53.92
2018-07-28T01:32:22.431Z,53.73
2018-07-28T01:33:27.954Z,53.92
2018-07-28T01:34:33.474Z,54.21
2018-07-28T01:35:38.996Z,54.31
2018-07-28T01:36:44.519Z,54.50
2018-07-28T01:37:50.035Z,54.02
2018-07-28T01:38:55.576Z,54.02
2018-07-28T01:40:01.079Z,54.50
2018-07-28T01:41:06.598Z,54.11
2018-07-28T01:42:12.132Z,54.41
2018-07-28T01:43:17.660Z,54.11
2018-07-28T01:44:23.161Z,53.63
2018-07-28T01:45:28.680Z,53.92
2018-07-28T01:46:34.197Z,53.83
2018-07-28T01:47:39.724Z,54.02
2018-07-28T01:48:45.241Z,53.15
2018-07-28T01:49:50.760Z,53.15
2018-07-28T01:50:56.287Z,53.53
2018-07-28T01:52:01.802Z,54.21
2018-07-28T01:53:07.320Z,53.53
2018-07-28T01:54:12.840Z,53.34
2018-07-28T01:55:18.364Z,54.05
2018-07-28T01:56:23.884Z,53.66
2018-07-28T01:57:29.405Z,53.24
2018-07-28T01:58:34.936Z,53.27
2018-07-28T01:59:40.475Z,53.08
2018-07-28T02:00:45.970Z,54.44
2018-07-28T02:01:51.485Z,54.34
2018-07-28T02:02:57.009Z,54.53
2018-07-28T02:04:02.527Z,54.53
2018-07-28T02:05:08.052Z,54.53
2018-07-28T02:08:05.473Z,54.05
2018-07-28T02:08:53.397Z,53.17
2018-07-28T02:09:47.668Z,53.17
2018-07-28T02:10:59.865Z,53.37
2018-07-28T02:12:18.104Z,53.37
2018-07-28T02:13:12.171Z,53.44
2018-07-28T02:14:46.281Z,53.66
2018-07-28T02:15:17.305Z,53.08
2018-07-28T02:16:24.277Z,52.28
2018-07-28T02:17:47.636Z,52.59
2018-07-28T02:18:53.586Z,52.37
2018-07-28T02:19:55.440Z,52.69
2018-07-28T02:21:52.592Z,52.28
2018-07-28T02:23:10.628Z,52.20
2018-07-28T02:24:25.792Z,52.37
2018-07-28T02:25:08.291Z,52.37
2018-07-28T02:26:20.379Z,52.28
2018-07-28T02:28:28.700Z,52.37
2018-07-28T02:29:29.619Z,52.18
2018-07-28T02:30:34.746Z,52.47
2018-07-28T02:31:56.777Z,52.37
2018-07-28T02:33:01.898Z,52.47
2018-07-28T02:33:53.714Z,52.86
2018-07-28T02:34:51.828Z,53.24
2018-07-28T02:36:28.346Z,53.53
2018-07-28T02:38:26.936Z,53.24
2018-07-28T02:39:37.486Z,53.24
2018-07-28T02:40:34.423Z,53.22
2018-07-28T02:41:43.542Z,53.83
2018-07-28T02:42:36.688Z,54.38
2018-07-28T02:43:38.743Z,54.67
2018-07-28T02:44:58.821Z,54.28
2018-07-28T02:45:58.113Z,53.99
2018-07-28T02:46:56.075Z,54.58
2018-07-28T02:48:09.807Z,54.67
2018-07-28T02:49:26.303Z,54.86
2018-07-28T02:51:25.913Z,55.26
2018-07-28T02:52:35.346Z,55.35
2018-07-28T02:53:38.728Z,55.16
2018-07-28T02:54:37.714Z,54.77
2018-07-28T02:55:46.933Z,54.38
2018-07-28T02:56:46.943Z,54.28
2018-07-28T02:58:04.062Z,54.38
2018-07-28T02:58:58.335Z,53.89
2018-07-28T03:00:01.206Z,54.38
2018-07-28T03:01:07.259Z,54.86
2018-07-28T03:02:11.362Z,54.28
2018-07-28T03:03:25.451Z,54.86
2018-07-28T03:04:36.876Z,55.06
2018-07-28T03:05:30.434Z,55.26
2018-07-28T03:06:38.737Z,54.58
2018-07-28T03:07:45.917Z,55.13
2018-07-28T03:08:42.852Z,54.58
2018-07-28T03:09:45.521Z,54.06
2018-07-28T03:11:00.897Z,54.45
2018-07-28T03:12:02.843Z,54.35
2018-07-28T03:13:03.985Z,54.77
2018-07-28T03:14:34.300Z,54.94
2018-07-28T03:15:31.543Z,54.28
2018-07-28T03:16:28.274Z,54.64
2018-07-28T03:17:39.754Z,54.35
2018-07-28T03:18:37.608Z,55.26
2018-07-28T03:20:51.453Z,55.22
2018-07-28T03:21:57.192Z,55.13
2018-07-28T03:23:06.723Z,55.04
2018-07-28T03:26:18.221Z,56.20
2018-07-28T03:27:22.223Z,55.90
2018-07-28T03:28:39.438Z,56.39
2018-07-28T03:29:35.554Z,56.49
2018-07-28T03:30:50.718Z,56.77
2018-07-28T03:32:49.911Z,56.77
2018-07-28T03:33:59.856Z,56.77
2018-07-28T03:35:06.623Z,56.49
2018-07-28T03:36:06.631Z,56.20
2018-07-28T03:37:18.112Z,56.29
2018-07-28T03:38:24.167Z,56.65
2018-07-28T03:39:32.464Z,56.46
2018-07-28T03:40:37.285Z,56.65
2018-07-28T03:41:42.516Z,56.85
2018-07-28T03:43:42.637Z,56.94
2018-07-28T03:45:59.753Z,57.53
2018-07-28T03:47:11.947Z,57.81
2018-07-28T03:48:14.519Z,57.71
2018-07-28T03:50:28.154Z,58.20
2018-07-28T03:51:36.357Z,57.59
2018-07-28T03:52:33.503Z,56.82
2018-07-28T03:53:41.393Z,56.56
2018-07-28T03:54:44.164Z,56.75
2018-07-28T03:55:49.703Z,56.46
2018-07-28T03:57:13.774Z,56.46
2018-07-28T03:57:58.224Z,56.85
2018-07-28T03:59:07.959Z,56.85
2018-07-28T04:00:19.744Z,56.46
2018-07-28T04:01:24.256Z,57.14
2018-07-28T04:03:39.843Z,57.04
2018-07-28T04:04:34.424Z,56.94
2018-07-28T04:06:47.444Z,56.77
2018-07-28T04:07:50.526Z,56.68
2018-07-28T04:08:57.087Z,55.90
2018-07-28T04:10:05.906Z,55.98
2018-07-28T04:11:05.809Z,55.32
2018-07-28T04:12:15.543Z,55.90
2018-07-28T04:13:25.279Z,56.10
2018-07-28T04:14:14.434Z,55.90
2018-07-28T04:15:19.872Z,56.20
2018-07-28T04:16:38.209Z,55.62
2018-07-28T04:17:31.053Z,56.00
2018-07-28T04:18:36.389Z,55.81
2018-07-28T04:19:42.540Z,55.83
2018-07-28T04:20:55.760Z,56.10
2018-07-28T04:22:07.240Z,56.23
2018-07-28T04:24:19.040Z,55.81
2018-07-28T04:25:15.668Z,56.29
2018-07-28T04:27:26.334Z,56.29
2018-07-28T04:28:25.755Z,56.51
2018-07-28T04:29:48.162Z,56.61
2018-07-28T04:30:56.467Z,56.13
2018-07-28T04:31:47.670Z,56.51
2018-07-28T04:33:01.709Z,56.61
2018-07-28T04:34:04.686Z,56.51
2018-07-28T04:35:08.180Z,56.32
2018-07-28T04:36:10.541Z,56.61
2018-07-28T04:37:14.858Z,56.41
2018-07-28T04:38:27.251Z,56.61
2018-07-28T04:39:25.320Z,56.81
2018-07-28T04:40:37.919Z,56.81
2018-07-28T04:41:44.387Z,56.81
2018-07-28T04:42:54.526Z,56.90
2018-07-28T04:43:47.569Z,56.71
2018-07-28T04:45:02.532Z,57.00
2018-07-28T04:45:58.544Z,57.00
2018-07-28T04:47:11.455Z,57.58
2018-07-28T04:48:06.755Z,57.68
2018-07-28T04:49:22.126Z,57.39
2018-07-28T04:52:33.622Z,57.48
2018-07-28T04:53:41.927Z,57.58
2018-07-28T04:54:44.292Z,58.26
2018-07-28T04:55:57.205Z,57.78
2018-07-28T04:56:54.756Z,57.97
2018-07-28T04:59:02.761Z,57.87
2018-07-28T05:00:17.818Z,58.06
2018-07-28T05:01:24.596Z,57.29
2018-07-28T05:02:18.257Z,57.68
2018-07-28T05:03:25.837Z,58.16
2018-07-28T05:04:36.085Z,58.26
2018-07-28T05:05:47.362Z,58.74
2018-07-28T05:06:38.255Z,58.74
2018-07-28T05:07:46.559Z,58.55
2018-07-28T05:08:57.420Z,58.74
2018-07-28T05:10:05.416Z,58.55
2018-07-28T05:11:06.863Z,58.84
2018-07-28T05:13:13.941Z,58.74
2018-07-28T05:14:25.243Z,58.84
2018-07-28T05:15:39.765Z,59.13
2018-07-28T05:16:35.167Z,58.16
2018-07-28T05:17:37.940Z,59.03
2018-07-28T05:18:47.269Z,59.52
2018-07-28T05:20:56.914Z,59.52
2018-07-28T05:21:58.970Z,59.42
2018-07-28T05:23:07.785Z,59.61
2018-07-28T05:25:11.080Z,59.42
2018-07-28T05:26:32.183Z,59.91
2018-07-28T05:27:35.059Z,60.00
2018-07-28T05:28:34.354Z,59.81
2018-07-28T05:29:49.621Z,59.91
2018-07-28T05:30:42.460Z,60.68
2018-07-28T05:31:57.523Z,60.39
2018-07-28T05:32:53.742Z,60.30
2018-07-28T05:34:07.777Z,60.78
2018-07-28T05:35:11.890Z,60.39
2018-07-28T05:36:13.941Z,60.10
2018-07-28T05:37:26.959Z,61.46
2018-07-28T05:38:25.942Z,60.88
2018-07-28T05:39:23.087Z,60.39
2018-07-28T05:40:40.089Z,60.00
2018-07-28T05:41:33.852Z,60.39
2018-07-28T05:42:50.559Z,60.49
2018-07-28T05:43:51.480Z,60.78
2018-07-28T05:45:00.106Z,60.00
2018-07-28T05:47:12.499Z,60.10
2018-07-28T05:48:06.465Z,59.91
2018-07-28T05:49:23.068Z,60.39
2018-07-28T05:50:32.084Z,60.20
2018-07-28T05:51:30.250Z,59.91
2018-07-28T05:52:38.142Z,60.00
2018-07-28T05:53:38.152Z,59.91
2018-07-28T05:54:45.327Z,60.30
2018-07-28T05:55:51.281Z,60.20
2018-07-28T05:57:02.655Z,59.71
2018-07-28T05:58:10.346Z,60.00
2018-07-28T05:59:04.721Z,60.68
2018-07-28T06:01:18.049Z,60.49
2018-07-28T06:02:31.627Z,60.58
2018-07-28T06:03:38.141Z,60.58
2018-07-28T06:04:44.191Z,60.49
2018-07-28T06:05:43.893Z,60.68
2018-07-28T06:07:01.518Z,60.00
2018-07-28T06:08:00.296Z,60.30
2018-07-28T06:08:57.027Z,60.78
2018-07-28T06:09:56.320Z,60.42
2018-07-28T06:11:14.146Z,60.32
2018-07-28T06:12:16.717Z,60.32
2018-07-28T06:13:26.043Z,60.52
2018-07-28T06:15:40.296Z,60.61
2018-07-28T06:16:43.377Z,60.42
2018-07-28T06:17:42.258Z,60.32
2018-07-28T06:18:50.972Z,61.39
2018-07-28T06:20:11.503Z,61.10
2018-07-28T06:20:57.442Z,60.74
2018-07-28T06:23:14.455Z,60.84
2018-07-28T06:24:08.524Z,61.22
2018-07-28T06:25:21.541Z,60.84
2018-07-28T06:26:46.742Z,60.45
2018-07-28T06:27:38.865Z,60.84
2018-07-28T06:28:48.395Z,60.45
2018-07-28T06:29:39.903Z,60.74
2018-07-28T06:33:03.687Z,59.48
2018-07-28T06:34:06.668Z,60.16
2018-07-28T06:35:30.432Z,60.64
2018-07-28T06:37:39.154Z,60.06
2018-07-28T06:39:28.975Z,60.45
2018-07-28T06:41:00.174Z,59.77
2018-07-28T06:41:51.685Z,59.77
2018-07-28T06:42:59.169Z,60.06
2018-07-28T06:44:16.791Z,60.35
2018-07-28T06:46:13.838Z,60.64
2018-07-28T06:47:31.748Z,60.55
2018-07-28T06:50:48.384Z,59.28
2018-07-28T06:51:30.982Z,60.25
2018-07-28T06:52:41.433Z,60.06
2018-07-28T06:53:59.158Z,60.55
2018-07-28T06:54:52.509Z,60.06
2018-07-28T06:55:56.823Z,60.16
2018-07-28T06:57:05.845Z,59.87
2018-07-28T06:58:31.970Z,59.48
2018-07-28T06:59:04.835Z,60.16
2018-07-28T07:00:36.182Z,60.45
2018-07-28T07:01:49.807Z,60.06
2018-07-28T07:02:32.514Z,60.09
2018-07-28T07:03:38.664Z,60.06
2018-07-28T07:06:49.546Z,60.16
2018-07-28T07:07:58.769Z,60.28
2018-07-28T07:09:02.156Z,60.84
2018-07-28T07:11:30.263Z,60.35
2018-07-28T07:12:15.901Z,60.45
2018-07-28T07:14:33.940Z,60.74
2018-07-28T07:15:31.392Z,60.84
2018-07-28T07:16:45.640Z,60.45
2018-07-28T07:17:53.633Z,60.64
2018-07-28T07:18:52.714Z,61.04
2018-07-28T07:19:50.675Z,61.04
2018-07-28T07:21:17.104Z,60.94
2018-07-28T07:22:26.021Z,61.04
2018-07-28T07:24:34.128Z,61.71
2018-07-28T07:25:23.074Z,61.61
2018-07-28T07:26:31.378Z,61.61
2018-07-28T07:27:41.627Z,61.61
2018-07-28T07:28:46.656Z,61.68
2018-07-28T07:29:51.681Z,61.68
2018-07-28T07:30:47.388Z,61.78
2018-07-28T07:31:51.084Z,61.68
2018-07-28T07:33:03.589Z,61.58
2018-07-28T07:34:30.221Z,62.16
2018-07-28T07:35:10.874Z,61.49
2018-07-28T07:36:41.397Z,61.98
2018-07-28T07:37:26.661Z,61.98
2018-07-28T07:38:36.091Z,61.88
2018-07-28T07:39:44.291Z,61.88
2018-07-28T07:40:55.565Z,62.07
2018-07-28T07:43:00.807Z,62.26
2018-07-28T07:43:53.654Z,62.95
2018-07-28T07:44:57.752Z,63.72
2018-07-28T07:46:03.597Z,64.11
2018-07-28T07:47:15.201Z,64.98
2018-07-28T07:48:29.933Z,66.44
2018-07-28T07:49:27.275Z,66.53
2018-07-28T07:50:35.679Z,68.96
2018-07-28T07:51:37.531Z,69.64
2018-07-28T07:52:47.678Z,69.83
2018-07-28T07:53:55.947Z,70.41
2018-07-28T07:57:11.166Z,71.15
2018-07-28T07:58:06.161Z,70.96
2018-07-28T07:59:23.262Z,71.83
2018-07-28T08:02:39.059Z,73.44
2018-07-28T08:03:46.648Z,73.44
2018-07-28T08:04:47.684Z,74.51
2018-07-28T08:05:58.438Z,75.96
2018-07-28T08:07:01.109Z,76.45
2018-07-28T08:08:05.837Z,76.21
2018-07-28T08:09:08.298Z,76.12
2018-07-28T08:10:14.449Z,76.12
2018-07-28T08:11:25.621Z,76.12
2018-07-28T08:14:42.031Z,76.60
2018-07-28T08:15:36.508Z,76.41
2018-07-28T08:16:45.327Z,76.12
2018-07-28T08:17:59.567Z,76.08
2018-07-28T08:18:52.511Z,76.79
2018-07-28T08:20:06.754Z,77.37
2018-07-28T08:21:02.706Z,77.63
2018-07-28T08:22:17.215Z,78.34
2018-07-28T08:23:34.738Z,78.15
2018-07-28T08:24:40.889Z,78.31
2018-07-28T08:25:38.746Z,78.99
2018-07-28T08:28:54.236Z,79.02
2018-07-28T08:29:55.920Z,79.99
2018-07-28T08:32:30.209Z,80.38
2018-07-28T08:33:20.599Z,80.09
2018-07-28T08:34:20.904Z,80.28
2018-07-28T08:35:27.775Z,80.47
2018-07-28T08:36:24.586Z,81.64
2018-07-28T08:38:35.177Z,78.74
2018-07-28T08:39:44.712Z,79.22
2018-07-28T08:41:08.890Z,79.02
2018-07-28T08:44:18.950Z,78.83
2018-07-28T08:45:26.236Z,78.92
2018-07-28T08:46:20.400Z,78.74
2018-07-28T08:48:24.821Z,78.54
2018-07-28T08:50:37.021Z,77.37
2018-07-28T08:51:42.663Z,77.96
2018-07-28T08:52:52.912Z,77.42
2018-07-28T08:53:54.969Z,78.34
2018-07-28T08:54:57.340Z,77.28
2018-07-28T08:56:13.213Z,76.70
2018-07-28T08:57:16.499Z,76.60
2018-07-28T08:58:13.440Z,76.41
2018-07-28T08:59:17.449Z,76.31
2018-07-28T09:00:32.604Z,76.60
2018-07-28T09:01:42.031Z,77.61
2018-07-28T09:02:45.419Z,77.76
2018-07-28T09:03:57.209Z,77.76
2018-07-28T09:04:51.073Z,77.76
2018-07-28T09:06:08.957Z,77.57
2018-07-28T09:07:05.228Z,77.47
2018-07-28T09:08:11.166Z,77.09
2018-07-28T09:09:19.313Z,76.79
2018-07-28T09:10:17.476Z,76.60
2018-07-28T09:11:22.561Z,77.28
2018-07-28T09:12:35.481Z,77.09
2018-07-28T09:14:39.791Z,77.19
2018-07-28T09:16:03.865Z,76.12
2018-07-28T09:17:09.097Z,77.09
2018-07-28T09:18:01.641Z,76.99
2018-07-28T09:21:16.815Z,77.76
2018-07-28T09:22:16.311Z,78.25
2018-07-28T09:23:18.023Z,78.54
2018-07-28T09:25:33.641Z,78.74
2018-07-28T09:26:49.729Z,79.22
2018-07-28T09:27:54.758Z,78.74
2018-07-28T09:29:00.512Z,79.22
2018-07-28T09:30:11.737Z,78.74
2018-07-28T09:31:24.274Z,79.80
2018-07-28T09:32:08.103Z,80.87
2018-07-28T09:33:22.142Z,80.09
2018-07-28T09:34:27.066Z,80.77
2018-07-28T09:35:23.898Z,80.77
2018-07-28T09:37:44.601Z,80.87
2018-07-28T09:38:59.358Z,80.28
2018-07-28T09:39:52.811Z,80.57
2018-07-28T09:41:18.525Z,80.19
2018-07-28T09:42:01.740Z,81.73
2018-07-28T09:43:10.873Z,80.77
2018-07-28T09:44:11.498Z,80.28
2018-07-28T09:45:18.665Z,81.15
2018-07-28T09:46:22.088Z,80.52
2018-07-28T09:48:28.215Z,81.68
2018-07-28T09:50:51.276Z,81.48
2018-07-28T09:51:38.280Z,81.87
2018-07-28T09:54:12.704Z,81.97
2018-07-28T09:55:10.568Z,81.87
2018-07-28T09:56:16.596Z,82.55
2018-07-28T09:58:12.737Z,81.23
2018-07-28T09:59:22.576Z,80.75
2018-07-28T10:00:32.311Z,81.62
2018-07-28T10:01:35.084Z,80.94
2018-07-28T10:02:42.059Z,82.10
2018-07-28T10:03:42.885Z,81.33
2018-07-28T10:04:52.007Z,80.75
2018-07-28T10:05:57.343Z,81.47
2018-07-28T10:06:58.583Z,80.79
2018-07-28T10:08:06.265Z,80.69
2018-07-28T10:09:10.472Z,81.57
2018-07-28T10:10:24.717Z,80.50
2018-07-28T10:11:24.422Z,79.14
2018-07-28T10:12:37.641Z,79.82
2018-07-28T10:13:37.338Z,79.53
2018-07-28T10:14:40.729Z,78.85
2018-07-28T10:15:46.267Z,77.72
2018-07-28T10:17:08.208Z,77.82
2018-07-28T10:18:03.383Z,77.62
2018-07-28T10:18:59.095Z,78.02
2018-07-28T10:21:22.660Z,77.24
2018-07-28T10:22:16.627Z,77.62
2018-07-28T10:23:28.514Z,77.24
2018-07-28T10:25:39.793Z,78.11
2018-07-28T10:26:42.772Z,76.95
2018-07-28T10:27:44.834Z,76.46
2018-07-28T10:28:46.064Z,77.24
2018-07-28T10:29:55.905Z,75.88
2018-07-28T10:31:11.480Z,76.17
2018-07-28T10:32:05.550Z,74.81
2018-07-28T10:33:11.294Z,76.56
2018-07-28T10:35:20.939Z,76.27
2018-07-28T10:37:40.924Z,76.75
2018-07-28T10:38:42.875Z,76.07
2018-07-28T10:41:07.473Z,75.78
2018-07-28T10:41:59.190Z,77.14
2018-07-28T10:43:06.979Z,75.40
2018-07-28T10:44:17.538Z,74.52
2018-07-28T10:45:15.607Z,75.92
2018-07-28T10:46:33.544Z,75.49
2018-07-28T10:47:40.908Z,74.04
2018-07-28T10:49:59.675Z,74.43
2018-07-28T10:50:39.092Z,74.56
2018-07-28T10:52:06.337Z,73.78
2018-07-28T10:52:53.857Z,73.94
2018-07-28T10:54:44.858Z,73.30
2018-07-28T10:55:22.466Z,74.65
2018-07-28T10:56:18.049Z,74.75
2018-07-28T10:57:14.576Z,75.04
2018-07-28T10:58:23.697Z,73.97
2018-07-28T10:59:53.403Z,74.37
2018-07-28T11:00:54.131Z,74.37
2018-07-28T11:01:40.008Z,74.50
2018-07-28T11:02:43.086Z,74.11
2018-07-28T11:03:42.992Z,73.33
2018-07-28T11:06:07.077Z,71.39
2018-07-28T11:07:05.247Z,72.65
2018-07-28T11:08:21.637Z,74.79
2018-07-28T11:09:18.490Z,73.72
2018-07-28T11:11:36.103Z,73.46
2018-07-28T11:12:47.174Z,71.33
2018-07-28T11:13:33.257Z,70.65
2018-07-28T11:14:45.037Z,70.55
2018-07-28T11:15:44.328Z,70.84
2018-07-28T11:16:57.449Z,70.45
2018-07-28T11:17:55.409Z,70.65
2018-07-28T11:19:18.355Z,70.36
2018-07-28T11:20:12.525Z,70.16
2018-07-28T11:21:22.676Z,70.36
2018-07-28T11:22:30.674Z,70.16
2018-07-28T11:23:37.023Z,68.60
2018-07-28T11:24:28.325Z,70.45
2018-07-28T11:25:44.408Z,70.65
2018-07-28T11:26:52.199Z,70.55
2018-07-28T11:27:51.081Z,70.29
2018-07-28T11:28:59.795Z,70.06
2018-07-28T11:30:01.031Z,70.87
2018-07-28T11:31:20.497Z,68.84
2018-07-28T11:32:29.932Z,68.90
2018-07-28T11:33:23.869Z,67.63
2018-07-28T11:34:25.128Z,67.86
2018-07-28T11:35:34.975Z,68.44
2018-07-28T11:36:38.463Z,67.86
2018-07-28T11:37:47.787Z,68.64
2018-07-28T11:38:50.458Z,68.93
2018-07-28T11:39:50.154Z,67.76
2018-07-28T11:40:54.159Z,67.76
2018-07-28T11:42:11.579Z,67.96
2018-07-28T11:43:11.176Z,66.79
2018-07-28T11:46:34.444Z,67.80
2018-07-28T11:47:33.048Z,67.08
2018-07-28T11:48:47.878Z,66.79
2018-07-28T11:49:55.772Z,67.41
2018-07-28T11:50:51.488Z,67.70
2018-07-28T11:52:57.334Z,66.44
2018-07-28T11:54:03.177Z,65.85
2018-07-28T11:55:15.984Z,64.72
2018-07-28T11:56:29.407Z,64.59
2018-07-28T11:58:30.338Z,67.93
2018-07-28T11:59:40.089Z,67.15
2018-07-28T12:01:44.889Z,66.50
2018-07-28T12:03:54.761Z,63.97
2018-07-28T12:05:02.562Z,63.61
2018-07-28T12:07:16.394Z,63.32
2018-07-28T12:08:17.637Z,62.25
2018-07-28T12:10:36.909Z,62.57
2018-07-28T12:11:37.220Z,61.79
2018-07-28T12:12:49.004Z,63.38
2018-07-28T12:13:37.849Z,61.43
2018-07-28T12:14:50.761Z,59.67
2018-07-28T12:16:00.505Z,59.48
2018-07-28T12:17:19.869Z,60.85
2018-07-28T12:18:15.720Z,58.70
2018-07-28T12:19:09.534Z,58.70
2018-07-28T12:20:15.890Z,58.02
2018-07-28T12:22:32.599Z,58.80
2018-07-28T12:23:47.967Z,59.12
2018-07-28T12:24:39.272Z,59.02
2018-07-28T12:25:47.884Z,57.36
2018-07-28T12:26:58.341Z,57.07
2018-07-28T12:28:05.818Z,55.90
2018-07-28T12:29:12.482Z,55.44
2018-07-28T12:30:20.989Z,55.61
2018-07-28T12:31:21.305Z,55.05
2018-07-28T12:32:21.319Z,54.07
2018-07-28T12:33:43.032Z,55.83
2018-07-28T12:34:36.397Z,55.15
2018-07-28T12:35:33.943Z,55.12
2018-07-28T12:36:51.254Z,54.75
2018-07-28T12:38:56.090Z,55.63
2018-07-28T12:40:00.494Z,54.95
2018-07-28T12:42:07.994Z,52.90
2018-07-28T12:43:18.438Z,53.00
2018-07-28T12:44:21.726Z,52.61
2018-07-28T12:46:32.084Z,53.58
2018-07-28T12:47:48.282Z,54.75
2018-07-28T12:48:48.487Z,54.36
2018-07-28T12:49:45.426Z,53.00
2018-07-28T12:51:06.322Z,54.66
2018-07-28T12:52:08.378Z,54.79
2018-07-28T12:53:09.615Z,54.10
2018-07-28T12:54:14.133Z,53.61
2018-07-28T12:55:25.537Z,52.25
2018-07-28T12:57:33.076Z,52.15
2018-07-28T12:58:42.127Z,52.37
2018-07-28T12:59:46.639Z,52.47
2018-07-28T13:00:42.757Z,51.39
2018-07-28T13:01:58.024Z,50.51
2018-07-28T13:03:04.486Z,50.51
2018-07-28T13:04:07.976Z,51.10
2018-07-28T13:06:13.012Z,51.98
2018-07-28T13:09:32.906Z,53.34
2018-07-28T13:10:34.870Z,53.83
2018-07-28T13:12:46.587Z,51.49
2018-07-28T13:13:47.501Z,50.90
2018-07-28T13:17:07.335Z,51.98
2018-07-28T13:18:06.976Z,51.59
2018-07-28T13:21:29.840Z,51.78
2018-07-28T13:22:48.186Z,49.04
2018-07-28T13:23:45.787Z,49.24
2018-07-28T13:24:45.438Z,49.43
2018-07-28T13:26:07.867Z,50.59
2018-07-28T13:26:58.250Z,50.78
2018-07-28T13:28:18.534Z,51.76
2018-07-28T13:29:16.287Z,52.05
2018-07-28T13:30:19.367Z,52.34
2018-07-28T13:31:23.374Z,50.98
2018-07-28T13:32:25.841Z,51.07
2018-07-28T13:34:48.384Z,51.46
2018-07-28T13:35:47.059Z,51.56
2018-07-28T13:37:06.227Z,51.46
2018-07-28T13:38:56.618Z,51.37
2018-07-28T13:40:15.672Z,51.66
2018-07-28T13:41:13.534Z,52.15
2018-07-28T13:42:26.845Z,52.15
2018-07-28T13:43:30.849Z,52.34
2018-07-28T13:44:28.296Z,52.76
2018-07-28T13:45:33.637Z,51.68
2018-07-28T13:46:56.383Z,50.49
2018-07-28T13:47:52.073Z,49.80
2018-07-28T13:48:53.215Z,50.59
2018-07-28T13:51:15.556Z,50.39
2018-07-28T13:52:05.220Z,50.78
2018-07-28T13:53:27.680Z,49.80
2018-07-28T13:54:12.818Z,50.59
2018-07-28T13:55:30.437Z,51.17
2018-07-28T13:56:23.485Z,50.95
2018-07-28T13:57:38.546Z,50.68
2018-07-28T13:59:45.629Z,52.64
2018-07-28T14:00:55.058Z,52.25
2018-07-28T14:02:02.441Z,52.02
2018-07-28T14:03:01.734Z,51.43
2018-07-28T14:04:18.946Z,51.34
2018-07-28T14:05:22.750Z,52.22
2018-07-28T14:07:19.898Z,52.61
2018-07-28T14:08:30.866Z,51.24
2018-07-28T14:09:37.120Z,52.02
2018-07-28T14:11:51.679Z,52.12
2018-07-28T14:12:54.656Z,50.65
2018-07-28T14:14:05.130Z,52.31
2018-07-28T14:15:16.688Z,50.56
2018-07-28T14:16:18.235Z,52.22
2018-07-28T14:17:12.516Z,52.31
2018-07-28T14:18:25.486Z,52.12
2018-07-28T14:20:30.769Z,52.70
2018-07-28T14:21:35.891Z,51.43
2018-07-28T14:22:42.760Z,52.39
2018-07-28T14:23:43.589Z,52.09
2018-07-28T14:25:55.998Z,52.68
2018-07-28T14:27:11.265Z,52.09
2018-07-28T14:28:06.563Z,52.19
2018-07-28T14:29:12.308Z,52.39
2018-07-28T14:32:27.488Z,51.53
2018-07-28T14:33:42.655Z,53.19
2018-07-28T14:34:52.079Z,51.73
2018-07-28T14:35:46.358Z,50.56
2018-07-28T14:37:02.952Z,50.75
2018-07-28T14:37:54.868Z,50.65
2018-07-28T14:39:08.703Z,49.00
2018-07-28T14:41:22.851Z,49.49
2018-07-28T14:42:13.745Z,51.14
2018-07-28T14:43:28.506Z,49.58
2018-07-28T14:44:33.126Z,50.16
2018-07-28T14:45:43.573Z,50.56
2018-07-28T14:46:47.061Z,51.24
2018-07-28T14:47:59.048Z,51.07
2018-07-28T14:48:46.051Z,49.19
2018-07-28T14:50:01.933Z,49.10
2018-07-28T14:51:04.401Z,49.22
2018-07-28T14:52:01.335Z,48.14
2018-07-28T14:53:32.577Z,48.05
2018-07-28T14:54:20.195Z,49.02
2018-07-28T14:56:32.092Z,47.75
2018-07-28T14:57:36.119Z,47.27
2018-07-28T14:58:42.766Z,47.85
2018-07-28T14:59:42.641Z,49.02
2018-07-28T15:01:59.174Z,48.24
2018-07-28T15:03:01.885Z,47.75
2018-07-28T15:05:12.007Z,48.44
2018-07-28T15:06:30.237Z,48.05
2018-07-28T15:07:28.518Z,47.66
2018-07-28T15:09:38.456Z,47.56
2018-07-28T15:10:45.649Z,46.85
2018-07-28T15:11:46.155Z,45.87
2018-07-28T15:14:12.795Z,46.66
2018-07-28T15:15:06.862Z,46.66
2018-07-28T15:16:21.008Z,46.75
2018-07-28T15:17:18.245Z,47.61
2018-07-28T15:19:40.188Z,48.58
2018-07-28T15:20:31.074Z,48.19
2018-07-28T15:22:41.233Z,49.85
2018-07-28T15:23:48.817Z,50.53
2018-07-28T15:24:52.404Z,51.90
2018-07-28T15:26:05.834Z,52.29
2018-07-28T15:27:17.817Z,52.68
2018-07-28T15:28:17.015Z,52.66
2018-07-28T15:29:14.048Z,52.68
2018-07-28T15:30:21.839Z,53.53
2018-07-28T15:31:32.269Z,53.14
2018-07-28T15:32:28.689Z,52.07
2018-07-28T15:33:36.199Z,52.46
2018-07-28T15:34:41.021Z,51.97
2018-07-28T15:35:50.864Z,52.44
2018-07-28T15:36:59.399Z,52.66
2018-07-28T15:38:06.958Z,52.85
2018-07-28T15:39:11.983Z,52.75
2018-07-28T15:41:26.148Z,52.73
2018-07-28T15:42:26.753Z,53.31
2018-07-28T15:43:27.279Z,53.11
2018-07-28T15:44:34.146Z,51.26
2018-07-28T15:45:39.787Z,51.46
2018-07-28T15:46:37.643Z,50.97
2018-07-28T15:47:50.420Z,50.29
2018-07-28T15:49:09.416Z,51.56
2018-07-28T15:50:01.750Z,49.71
2018-07-28T15:51:10.653Z,50.70
2018-07-28T15:52:08.203Z,50.38
2018-07-28T15:53:18.658Z,50.87
2018-07-28T15:54:15.386Z,50.48
2018-07-28T15:55:25.126Z,50.48
2018-07-28T15:56:34.659Z,50.19
2018-07-28T15:57:39.308Z,50.48
2018-07-28T15:58:44.400Z,50.87
2018-07-28T15:59:54.548Z,50.97
2018-07-28T16:00:51.894Z,50.48
2018-07-28T16:02:02.562Z,50.48
2018-07-28T16:03:11.264Z,50.19
2018-07-28T16:04:12.528Z,50.87